createdAt,value
2022-10-05T00:01:28.064Z,10.49
2022-10-05T00:05:45.985Z,10.69
2022-10-05T00:10:10.627Z,10.68
2022-10-05T00:14:35.764Z,10.79
2022-10-05T00:18:53.807Z,10.33
2022-10-05T00:23:15.581Z,10.12
2022-10-05T00:27:39.085Z,10.57
2022-10-05T00:31:55.045Z,10.69
2022-10-05T00:36:11.122Z,10.56
2022-10-05T00:41:09.688Z,10.53
2022-10-05T00:45:33.046Z,10.37
2022-10-05T00:50:04.217Z,10.32
2022-10-05T00:54:49.615Z,10.50
2022-10-05T00:59:42.962Z,10.30
2022-10-05T01:04:10.759Z,10.28
2022-10-05T01:09:05.220Z,10.08
2022-10-05T01:13:50.438Z,10.20
2022-10-05T01:18:12.480Z,10.25
2022-10-05T01:22:52.426Z,9.90
2022-10-05T01:27:37.186Z,10.07
2022-10-05T01:32:21.000Z,10.08
2022-10-05T01:36:55.109Z,10.02
2022-10-05T01:41:26.012Z,10.10
2022-10-05T01:45:51.679Z,9.63
2022-10-05T01:50:32.210Z,9.70
2022-10-05T01:55:13.828Z,9.44
2022-10-05T01:59:53.454Z,9.51
2022-10-05T02:04:42.615Z,9.39
2022-10-05T02:09:09.188Z,9.47
2022-10-05T02:13:41.440Z,9.53
2022-10-05T02:18:09.785Z,9.73
2022-10-05T02:22:45.968Z,9.36
2022-10-05T02:27:02.686Z,9.77
2022-10-05T02:31:23.289Z,9.64
2022-10-05T02:35:39.570Z,9.89
2022-10-05T02:40:43.155Z,10.01
2022-10-05T02:45:54.035Z,9.80
2022-10-05T02:50:27.320Z,9.82
2022-10-05T02:55:10.688Z,9.96
2022-10-05T02:59:43.808Z,9.52
2022-10-05T03:04:21.726Z,9.44
2022-10-05T03:09:01.890Z,9.51
2022-10-05T03:13:40.589Z,9.46
2022-10-05T03:17:59.824Z,9.23
2022-10-05T03:22:54.207Z,9.39
2022-10-05T03:27:19.017Z,9.61
2022-10-05T03:31:55.517Z,8.98
2022-10-05T03:36:44.210Z,8.97
2022-10-05T03:41:22.806Z,9.22
2022-10-05T03:45:48.902Z,9.31
2022-10-05T03:50:42.508Z,9.27
2022-10-05T03:55:23.868Z,9.29
2022-10-05T03:59:56.747Z,9.05
2022-10-05T04:04:18.167Z,9.02
2022-10-05T04:08:40.602Z,8.70
2022-10-05T04:13:24.685Z,9.07
2022-10-05T04:17:46.947Z,8.96
2022-10-05T04:22:22.887Z,8.89
2022-10-05T04:26:45.850Z,8.62
2022-10-05T04:31:05.656Z,8.52
2022-10-05T04:35:30.628Z,8.84
2022-10-05T04:40:01.285Z,8.87
2022-10-05T04:44:32.279Z,9.00
2022-10-05T04:49:09.370Z,9.14
2022-10-05T04:53:53.492Z,8.98
2022-10-05T04:58:42.416Z,9.20
2022-10-05T05:03:25.773Z,9.25
2022-10-05T05:07:51.533Z,9.40
2022-10-05T05:12:35.018Z,9.42
2022-10-05T05:17:03.522Z,9.32
2022-10-05T05:21:42.738Z,9.34
2022-10-05T05:26:07.966Z,9.35
2022-10-05T05:30:26.812Z,9.57
2022-10-05T05:35:27.140Z,9.69
2022-10-05T05:39:53.718Z,9.80
2022-10-05T05:44:18.679Z,9.42
2022-10-05T05:48:46.740Z,9.68
2022-10-05T05:53:20.908Z,9.38
2022-10-05T05:57:46.908Z,9.19
2022-10-05T06:02:16.354Z,9.38
2022-10-05T06:06:36.216Z,8.94
2022-10-05T06:10:57.971Z,9.96
2022-10-05T06:15:28.491Z,10.20
2022-10-05T06:19:46.221Z,9.23
2022-10-05T06:24:17.317Z,9.08
2022-10-05T06:28:33.375Z,9.63
2022-10-05T06:33:04.491Z,9.68
2022-10-05T06:37:53.110Z,10.06
2022-10-05T06:42:09.063Z,10.18
2022-10-05T06:46:40.155Z,10.27
2022-10-05T06:51:09.326Z,10.65
2022-10-05T06:55:49.341Z,10.72
2022-10-05T07:00:20.754Z,11.06
2022-10-05T07:05:01.571Z,10.81
2022-10-05T07:09:44.865Z,11.35
2022-10-05T07:14:30.366Z,10.93
2022-10-05T07:19:21.748Z,11.60
2022-10-05T07:23:59.523Z,11.82
2022-10-05T07:28:31.735Z,12.35
2022-10-05T07:33:23.351Z,11.77
2022-10-05T07:37:55.319Z,11.75
2022-10-05T07:42:32.968Z,12.54
2022-10-05T07:47:13.346Z,13.15
2022-10-05T07:51:45.464Z,13.24
2022-10-05T07:56:06.719Z,12.36
2022-10-05T08:00:24.570Z,12.15
2022-10-05T08:05:01.081Z,12.27
2022-10-05T08:09:39.405Z,12.42
2022-10-05T08:14:18.072Z,13.26
2022-10-05T08:19:28.412Z,13.53
2022-10-05T08:23:50.955Z,14.02
2022-10-05T08:28:23.859Z,14.61
2022-10-05T08:32:56.015Z,15.16
2022-10-05T08:37:35.682Z,15.48
2022-10-05T08:41:58.300Z,15.74
2022-10-05T08:46:36.840Z,16.21
2022-10-05T08:51:17.844Z,14.99
2022-10-05T08:56:28.855Z,15.07
2022-10-05T09:00:54.343Z,16.47
2022-10-05T09:05:25.436Z,17.48
2022-10-05T09:10:01.413Z,17.87
2022-10-05T09:14:30.936Z,18.30
2022-10-05T09:19:09.006Z,18.82
2022-10-05T09:23:45.307Z,18.87
2022-10-05T09:28:23.041Z,18.87
2022-10-05T09:32:54.704Z,18.50
2022-10-05T09:37:23.082Z,18.53
2022-10-05T09:41:50.682Z,18.76
2022-10-05T09:46:25.505Z,19.31
2022-10-05T09:50:52.152Z,19.84
2022-10-05T09:55:19.966Z,20.19
2022-10-05T09:59:47.036Z,20.04
2022-10-05T10:04:07.207Z,20.67
2022-10-05T10:08:47.192Z,21.30
2022-10-05T10:13:28.759Z,21.57
2022-10-05T10:17:57.169Z,21.24
2022-10-05T10:22:47.529Z,22.23
2022-10-05T10:27:16.742Z,22.26
2022-10-05T10:31:40.697Z,21.98
2022-10-05T10:36:11.817Z,22.42
2022-10-05T10:41:09.505Z,22.33
2022-10-05T10:45:56.871Z,21.34
2022-10-05T10:50:40.860Z,21.63
2022-10-05T10:55:21.283Z,21.99
2022-10-05T11:00:08.406Z,20.90
2022-10-05T11:04:45.687Z,22.01
2022-10-05T11:09:11.441Z,21.73
2022-10-05T11:13:55.806Z,22.72
2022-10-05T11:18:17.814Z,21.99
2022-10-05T11:23:05.273Z,22.24
2022-10-05T11:27:37.544Z,22.58
2022-10-05T11:32:32.841Z,22.75
2022-10-05T11:36:57.201Z,22.95
2022-10-05T11:41:47.146Z,23.31
2022-10-05T11:46:30.092Z,23.44
2022-10-05T11:51:17.306Z,23.40
2022-10-05T11:55:42.084Z,22.77
2022-10-05T11:59:59.591Z,22.35
2022-10-05T12:04:39.766Z,22.50
2022-10-05T12:09:23.905Z,23.09
2022-10-05T12:14:17.524Z,23.21
2022-10-05T12:18:34.316Z,23.31
2022-10-05T12:22:59.258Z,22.49
2022-10-05T12:27:22.948Z,22.75
2022-10-05T12:31:41.692Z,20.36
2022-10-05T12:36:14.590Z,21.94
2022-10-05T12:40:42.277Z,22.04
2022-10-05T12:45:23.908Z,22.83
2022-10-05T12:49:46.079Z,22.57
2022-10-05T12:54:09.165Z,22.66
2022-10-05T12:58:41.168Z,23.07
2022-10-05T13:03:02.060Z,23.20
2022-10-05T13:07:41.342Z,23.28
2022-10-05T13:12:04.054Z,22.57
2022-10-05T13:16:54.823Z,21.97
2022-10-05T13:21:22.063Z,22.40
2022-10-05T13:25:44.855Z,22.25
2022-10-05T13:30:12.918Z,22.39
2022-10-05T13:35:10.585Z,22.06
2022-10-05T13:39:42.673Z,21.97
2022-10-05T13:44:17.613Z,21.89
2022-10-05T13:48:52.514Z,21.78
2022-10-05T13:53:36.752Z,21.83
2022-10-05T13:58:06.239Z,21.66
2022-10-05T14:02:27.889Z,21.69
2022-10-05T14:06:44.661Z,21.81
2022-10-05T14:11:20.427Z,21.59
2022-10-05T14:15:41.964Z,21.73
2022-10-05T14:20:03.070Z,21.38
2022-10-05T14:24:50.768Z,21.47
2022-10-05T14:29:19.061Z,21.19
2022-10-05T14:33:37.553Z,21.34
2022-10-05T14:38:16.642Z,21.12
2022-10-05T14:42:46.263Z,21.19
2022-10-05T14:47:20.425Z,20.92
2022-10-05T14:51:37.764Z,20.79
2022-10-05T14:56:03.246Z,20.59
2022-10-05T15:00:19.929Z,21.05
2022-10-05T15:05:00.082Z,20.86
2022-10-05T15:09:33.641Z,20.86
2022-10-05T15:13:50.116Z,20.67
2022-10-05T15:18:34.934Z,20.48
2022-10-05T15:23:13.139Z,20.30
2022-10-05T15:27:54.207Z,20.39
2022-10-05T15:32:19.527Z,19.82
2022-10-05T15:36:39.463Z,20.03
2022-10-05T15:41:03.159Z,19.80
2022-10-05T15:45:30.166Z,19.81
2022-10-05T15:50:10.654Z,19.94
2022-10-05T15:55:01.460Z,19.74
2022-10-05T15:59:38.770Z,19.55
2022-10-05T16:04:15.485Z,19.44
2022-10-05T16:08:54.394Z,19.12
2022-10-05T16:13:28.126Z,19.04
2022-10-05T16:18:05.338Z,19.06
2022-10-05T16:22:49.378Z,18.58
2022-10-05T16:27:17.301Z,18.57
2022-10-05T16:31:54.503Z,18.43
2022-10-05T16:36:23.317Z,18.30
2022-10-05T16:41:01.923Z,18.04
2022-10-05T16:45:30.393Z,18.01
2022-10-05T16:49:48.272Z,17.77
2022-10-05T16:54:13.443Z,17.72
2022-10-05T16:58:43.798Z,17.83
2022-10-05T17:03:10.443Z,17.57
2022-10-05T17:07:50.706Z,17.61
2022-10-05T17:12:16.533Z,17.54
2022-10-05T17:16:43.977Z,17.38
2022-10-05T17:21:15.564Z,17.23
2022-10-05T17:25:54.507Z,17.21
2022-10-05T17:30:29.513Z,17.17
2022-10-05T17:35:00.780Z,17.08
2022-10-05T17:39:16.932Z,17.24
2022-10-05T17:43:34.194Z,17.52
2022-10-05T17:48:10.089Z,17.36
2022-10-05T17:52:47.738Z,17.25
2022-10-05T17:57:04.840Z,17.36
2022-10-05T18:01:39.757Z,16.96
2022-10-05T18:06:28.459Z,16.73
2022-10-05T18:11:09.340Z,17.12
2022-10-05T18:15:25.340Z,17.27
2022-10-05T18:20:01.901Z,16.79
2022-10-05T18:24:27.135Z,17.07
2022-10-05T18:28:49.565Z,16.87
2022-10-05T18:33:25.474Z,16.88
2022-10-05T18:37:48.121Z,16.92
2022-10-05T18:42:16.166Z,16.75
2022-10-05T18:46:38.314Z,16.67
2022-10-05T18:51:05.568Z,16.56
2022-10-05T18:55:31.709Z,16.03
2022-10-05T19:00:08.305Z,16.46
2022-10-05T19:04:35.086Z,16.59
2022-10-05T19:09:28.767Z,16.30
2022-10-05T19:14:20.212Z,16.31
2022-10-05T19:18:40.052Z,16.30
2022-10-05T19:23:17.462Z,16.17
2022-10-05T19:28:12.122Z,16.14
2022-10-05T19:32:44.146Z,16.23
2022-10-05T19:37:10.779Z,16.11
2022-10-05T19:41:45.466Z,16.13
2022-10-05T19:46:21.560Z,16.09
2022-10-05T19:50:39.950Z,16.07
2022-10-05T19:55:16.897Z,16.10
2022-10-05T19:59:32.966Z,15.92
2022-10-05T20:03:50.220Z,15.85
2022-10-05T20:08:09.350Z,15.84
2022-10-05T20:12:47.924Z,15.65
2022-10-05T20:17:46.221Z,15.85
2022-10-05T20:22:27.306Z,15.93
2022-10-05T20:27:32.722Z,15.91
2022-10-05T20:31:48.942Z,15.44
2022-10-05T20:36:05.292Z,15.53
2022-10-05T20:40:21.607Z,15.64
2022-10-05T20:44:38.695Z,15.68
2022-10-05T20:48:54.884Z,15.45
2022-10-05T20:53:12.055Z,15.10
2022-10-05T20:57:28.340Z,15.16
2022-10-05T21:01:48.101Z,14.81
2022-10-05T21:06:04.281Z,14.72
2022-10-05T21:10:20.435Z,14.64
2022-10-05T21:14:37.848Z,14.56
2022-10-05T21:18:53.930Z,14.37
2022-10-05T21:23:12.361Z,14.38
2022-10-05T21:27:28.431Z,13.98
2022-10-05T21:31:44.519Z,14.24
2022-10-05T21:36:00.793Z,14.58
2022-10-05T21:40:17.337Z,14.23
2022-10-05T21:44:33.369Z,14.58
2022-10-05T21:48:49.872Z,14.34
2022-10-05T21:53:07.706Z,14.46
2022-10-05T21:57:23.811Z,14.72
2022-10-05T22:01:39.989Z,14.80
2022-10-05T22:05:56.138Z,14.80
2022-10-05T22:10:12.480Z,14.55
2022-10-05T22:14:28.543Z,14.60
2022-10-05T22:18:44.601Z,14.54
2022-10-05T22:23:00.627Z,14.77
2022-10-05T22:27:16.904Z,14.16
2022-10-05T22:31:33.042Z,14.08
2022-10-05T22:35:49.293Z,14.07
2022-10-05T22:40:07.226Z,14.17
2022-10-05T22:44:23.309Z,14.15
2022-10-05T22:48:40.039Z,14.08
2022-10-05T22:52:56.111Z,14.00
2022-10-05T22:57:12.349Z,14.09
2022-10-05T23:01:28.502Z,14.00
2022-10-05T23:05:44.557Z,14.13
2022-10-05T23:10:00.634Z,13.83
2022-10-05T23:14:17.097Z,13.87
2022-10-05T23:18:33.999Z,13.90
2022-10-05T23:22:50.047Z,13.57
2022-10-05T23:27:06.017Z,13.55
2022-10-05T23:31:24.438Z,13.58
2022-10-05T23:35:40.461Z,13.69
2022-10-05T23:39:56.504Z,13.76
2022-10-05T23:44:12.596Z,13.49
2022-10-05T23:48:29.237Z,13.48
2022-10-05T23:52:45.579Z,13.40
2022-10-05T23:57:01.574Z,13.51
